Sentry Page Protection

Latest Glasgow METAR Decoded

What is a METAR?

Raw METAR: EGPF 201520Z 08007KT 040V120 9999 OVC036 17/10 Q1016
Time Published: Mon May 20 15:20:00 2024

Altimeter: 1016 hPa (30.00 inHg)
Clouds: Overcast layer at 3600ft - Reported AGL
Dewpoint: 10°C (50°F)
Temperature: 17°C (63°F)
Visibility: 10km (6.2sm)
Wind: E-080 (variable 040 to 120) at 7kt

Data pulled from AVWX API.

Customise webcam positions

Apply changes